createdAt,value
2023-05-19T00:00:59.394Z,68.40
2023-05-19T00:03:27.534Z,67.98
2023-05-19T00:05:56.888Z,68.27
2023-05-19T00:08:26.454Z,68.22
2023-05-19T00:10:54.936Z,67.92
2023-05-19T00:13:24.118Z,67.88
2023-05-19T00:15:52.252Z,68.34
2023-05-19T00:18:20.892Z,68.38
2023-05-19T00:20:48.607Z,68.29
2023-05-19T00:23:16.683Z,68.40
2023-05-19T00:25:45.688Z,68.19
2023-05-19T00:28:13.641Z,68.41
2023-05-19T00:30:41.273Z,68.74
2023-05-19T00:33:09.410Z,68.50
2023-05-19T00:35:37.179Z,68.50
2023-05-19T00:38:04.897Z,68.47
2023-05-19T00:40:36.606Z,68.44
2023-05-19T00:43:08.684Z,68.29
2023-05-19T00:45:36.396Z,68.67
2023-05-19T00:48:04.582Z,68.57
2023-05-19T00:50:32.924Z,69.07
2023-05-19T00:53:01.289Z,69.36
2023-05-19T00:55:32.686Z,69.04
2023-05-19T00:58:01.354Z,69.47
2023-05-19T01:00:31.991Z,68.91
2023-05-19T01:03:00.702Z,68.89
2023-05-19T01:05:28.475Z,69.19
2023-05-19T01:07:56.851Z,69.27
2023-05-19T01:10:24.788Z,69.46
2023-05-19T01:12:52.793Z,70.10
2023-05-19T01:15:29.815Z,69.94
2023-05-19T01:18:03.741Z,70.07
2023-05-19T01:20:38.465Z,70.06
2023-05-19T01:23:38.217Z,70.07
2023-05-19T01:26:18.613Z,70.34
2023-05-19T01:29:24.923Z,70.68
2023-05-19T01:31:58.198Z,70.24
2023-05-19T01:34:27.895Z,70.62
2023-05-19T01:36:56.981Z,70.48
2023-05-19T01:39:26.186Z,70.83
2023-05-19T01:41:55.874Z,70.91
2023-05-19T01:44:25.110Z,71.02
2023-05-19T01:46:55.028Z,71.29
2023-05-19T01:49:22.892Z,71.51
2023-05-19T01:51:50.646Z,71.29
2023-05-19T01:54:18.344Z,71.33
2023-05-19T01:56:53.835Z,71.67
2023-05-19T01:59:38.455Z,71.91
2023-05-19T02:02:16.746Z,72.23
2023-05-19T02:04:49.441Z,71.91
2023-05-19T02:07:33.892Z,71.75
2023-05-19T02:10:07.082Z,72.26
2023-05-19T02:12:38.128Z,72.16
2023-05-19T02:15:08.850Z,72.07
2023-05-19T02:17:42.752Z,72.28
2023-05-19T02:20:11.791Z,72.42
2023-05-19T02:22:39.581Z,72.26
2023-05-19T02:25:08.356Z,72.58
2023-05-19T02:27:37.252Z,72.65
2023-05-19T02:30:05.548Z,72.69
2023-05-19T02:32:33.610Z,73.29
2023-05-19T02:35:03.151Z,74.26
2023-05-19T02:37:31.122Z,74.16
2023-05-19T02:39:59.813Z,73.39
2023-05-19T02:42:27.557Z,73.17
2023-05-19T02:44:56.096Z,73.38
2023-05-19T02:47:24.002Z,73.16
2023-05-19T02:49:52.075Z,73.24
2023-05-19T02:52:21.081Z,72.98
2023-05-19T02:54:49.219Z,72.94
2023-05-19T02:57:16.944Z,72.71
2023-05-19T02:59:45.923Z,72.66
2023-05-19T03:02:13.649Z,72.06
2023-05-19T03:04:43.037Z,71.68
2023-05-19T03:07:14.244Z,71.88
2023-05-19T03:09:43.311Z,72.18
2023-05-19T03:12:11.203Z,72.02
2023-05-19T03:14:39.031Z,72.22
2023-05-19T03:17:08.652Z,72.37
2023-05-19T03:19:36.417Z,72.70
2023-05-19T03:22:04.830Z,72.93
2023-05-19T03:24:32.643Z,72.87
2023-05-19T03:27:02.838Z,73.16
2023-05-19T03:29:30.970Z,73.10
2023-05-19T03:32:00.122Z,73.07
2023-05-19T03:34:28.006Z,73.33
2023-05-19T03:36:56.104Z,73.39
2023-05-19T03:39:23.774Z,73.70
2023-05-19T03:41:51.723Z,73.74
2023-05-19T03:44:21.003Z,73.70
2023-05-19T03:46:48.692Z,73.64
2023-05-19T03:49:16.431Z,73.78
2023-05-19T03:51:44.577Z,73.64
2023-05-19T03:54:12.240Z,73.72
2023-05-19T03:56:41.234Z,73.98
2023-05-19T03:59:10.859Z,74.33
2023-05-19T04:01:39.886Z,74.45
2023-05-19T04:04:07.975Z,74.23
2023-05-19T04:06:36.558Z,74.05
2023-05-19T04:09:11.875Z,73.82
2023-05-19T04:11:40.566Z,74.04
2023-05-19T04:14:08.960Z,73.78
2023-05-19T04:16:37.097Z,74.19
2023-05-19T04:19:06.572Z,74.31
2023-05-19T04:21:34.676Z,74.27
2023-05-19T04:24:02.872Z,75.00
2023-05-19T04:26:34.353Z,75.26
2023-05-19T04:29:04.420Z,74.96
2023-05-19T04:31:34.308Z,75.16
2023-05-19T04:34:03.129Z,75.55
2023-05-19T04:36:33.942Z,75.87
2023-05-19T04:39:06.575Z,76.39
2023-05-19T04:41:34.775Z,75.91
2023-05-19T04:44:02.814Z,76.17
2023-05-19T04:46:30.616Z,76.22
2023-05-19T04:49:01.471Z,75.62
2023-05-19T04:51:31.250Z,75.87
2023-05-19T04:54:00.798Z,76.05
2023-05-19T04:56:28.876Z,75.81
2023-05-19T04:58:56.985Z,75.07
2023-05-19T05:01:26.135Z,75.29
2023-05-19T05:03:55.586Z,75.41
2023-05-19T05:06:23.362Z,75.49
2023-05-19T05:08:51.590Z,75.19
2023-05-19T05:11:21.366Z,75.21
2023-05-19T05:13:49.960Z,74.28
2023-05-19T05:16:18.252Z,74.52
2023-05-19T05:18:47.320Z,75.18
2023-05-19T05:21:15.607Z,75.42
2023-05-19T05:23:44.533Z,75.07
2023-05-19T05:26:19.895Z,74.91
2023-05-19T05:28:48.908Z,72.91
2023-05-19T05:31:17.217Z,73.28
2023-05-19T05:33:45.196Z,74.55
2023-05-19T05:36:14.102Z,75.09
2023-05-19T05:38:41.851Z,75.44
2023-05-19T05:41:09.503Z,75.82
2023-05-19T05:43:37.493Z,75.80
2023-05-19T05:46:06.659Z,75.44
2023-05-19T05:48:35.431Z,75.18
2023-05-19T05:51:03.630Z,73.75
2023-05-19T05:53:32.461Z,73.80
2023-05-19T05:56:00.765Z,74.42
2023-05-19T05:58:29.543Z,74.01
2023-05-19T06:00:58.601Z,74.21
2023-05-19T06:03:28.325Z,75.70
2023-05-19T06:05:56.460Z,74.80
2023-05-19T06:08:24.251Z,73.59
2023-05-19T06:10:52.296Z,73.05
2023-05-19T06:13:23.898Z,71.89
2023-05-19T06:15:53.135Z,71.52
2023-05-19T06:18:20.878Z,71.69
2023-05-19T06:20:51.063Z,72.48
2023-05-19T06:23:18.774Z,71.98
2023-05-19T06:25:47.131Z,71.20
2023-05-19T06:28:14.844Z,70.90
2023-05-19T06:30:42.567Z,70.82
2023-05-19T06:33:10.272Z,71.15
2023-05-19T06:35:38.286Z,70.58
2023-05-19T06:38:07.704Z,70.61
2023-05-19T06:40:36.021Z,71.10
2023-05-19T06:43:05.111Z,70.92
2023-05-19T06:45:32.988Z,69.96
2023-05-19T06:48:01.339Z,70.34
2023-05-19T06:50:29.192Z,70.40
2023-05-19T06:52:57.577Z,68.98
2023-05-19T06:55:26.925Z,68.57
2023-05-19T06:57:54.834Z,68.45
2023-05-19T07:00:24.011Z,69.12
2023-05-19T07:02:52.568Z,69.94
2023-05-19T07:05:21.614Z,70.35
2023-05-19T07:07:50.093Z,69.94
2023-05-19T07:10:17.913Z,68.08
2023-05-19T07:12:47.528Z,67.39
2023-05-19T07:15:15.361Z,67.35
2023-05-19T07:17:43.464Z,67.86
2023-05-19T07:20:12.090Z,68.35
2023-05-19T07:22:40.131Z,67.51
2023-05-19T07:25:09.699Z,66.79
2023-05-19T07:27:37.660Z,67.25
2023-05-19T07:30:08.741Z,66.77
2023-05-19T07:32:36.514Z,66.03
2023-05-19T07:35:04.884Z,65.40
2023-05-19T07:37:32.587Z,66.32
2023-05-19T07:40:01.102Z,65.81
2023-05-19T07:42:28.808Z,65.30
2023-05-19T07:44:56.495Z,64.62
2023-05-19T07:47:26.052Z,64.94
2023-05-19T07:49:53.736Z,63.61
2023-05-19T07:52:21.922Z,61.11
2023-05-19T07:54:49.685Z,59.94
2023-05-19T07:57:19.197Z,61.46
2023-05-19T07:59:47.010Z,61.59
2023-05-19T08:02:14.957Z,61.13
2023-05-19T08:04:44.216Z,61.36
2023-05-19T08:07:12.205Z,60.40
2023-05-19T08:09:39.922Z,60.34
2023-05-19T08:12:07.885Z,59.43
2023-05-19T08:14:35.662Z,58.80
2023-05-19T08:17:04.066Z,57.52
2023-05-19T08:19:31.880Z,57.81
2023-05-19T08:22:02.110Z,57.16
2023-05-19T08:24:30.547Z,57.08
2023-05-19T08:26:58.251Z,55.73
2023-05-19T08:29:26.357Z,54.89
2023-05-19T08:31:54.539Z,54.89
2023-05-19T08:34:22.290Z,57.06
2023-05-19T08:36:50.395Z,54.51
2023-05-19T08:39:24.164Z,55.31
2023-05-19T08:41:52.214Z,52.98
2023-05-19T08:44:20.116Z,51.78
2023-05-19T08:46:48.824Z,53.61
2023-05-19T08:49:25.475Z,53.54
2023-05-19T08:52:01.355Z,52.31
2023-05-19T08:54:39.983Z,53.24
2023-05-19T08:57:10.265Z,53.21
2023-05-19T08:59:38.632Z,54.01
2023-05-19T09:02:07.183Z,53.68
2023-05-19T09:04:35.634Z,49.70
2023-05-19T09:07:03.922Z,50.57
2023-05-19T09:09:33.742Z,50.85
2023-05-19T09:12:01.484Z,49.53
2023-05-19T09:14:29.962Z,47.82
2023-05-19T09:16:57.722Z,49.52
2023-05-19T09:19:30.397Z,48.33
2023-05-19T09:22:03.204Z,48.71
2023-05-19T09:24:32.042Z,45.92
2023-05-19T09:27:02.492Z,45.24
2023-05-19T09:29:30.413Z,45.18
2023-05-19T09:32:00.741Z,46.41
2023-05-19T09:34:29.136Z,47.90
2023-05-19T09:36:58.009Z,48.96
2023-05-19T09:39:26.493Z,47.89
2023-05-19T09:41:55.096Z,47.83
2023-05-19T09:44:29.380Z,48.03
2023-05-19T09:46:58.149Z,47.42
2023-05-19T09:49:30.064Z,45.57
2023-05-19T09:51:58.583Z,48.72
2023-05-19T09:54:29.449Z,47.16
2023-05-19T09:57:01.544Z,46.14
2023-05-19T09:59:33.552Z,44.04
2023-05-19T10:02:03.726Z,48.05
2023-05-19T10:04:32.382Z,44.68
2023-05-19T10:07:00.969Z,44.67
2023-05-19T10:09:30.266Z,44.02
2023-05-19T10:11:59.168Z,44.93
2023-05-19T10:14:28.478Z,45.23
2023-05-19T10:16:59.476Z,44.94
2023-05-19T10:19:28.796Z,42.11
2023-05-19T10:21:57.247Z,42.97
2023-05-19T10:24:25.498Z,43.37
2023-05-19T10:26:58.482Z,44.30
2023-05-19T10:29:31.511Z,42.89
2023-05-19T10:32:05.868Z,41.78
2023-05-19T10:35:09.107Z,41.71
2023-05-19T10:37:45.146Z,43.21
2023-05-19T10:40:21.112Z,42.42
2023-05-19T10:42:58.532Z,42.99
2023-05-19T10:45:31.898Z,44.04
2023-05-19T10:48:01.475Z,43.82
2023-05-19T10:50:36.966Z,41.83
2023-05-19T10:53:05.047Z,44.95
2023-05-19T10:55:53.017Z,43.77
2023-05-19T10:58:39.351Z,42.39
2023-05-19T11:01:11.014Z,43.07
2023-05-19T11:03:58.277Z,42.26
2023-05-19T11:06:28.224Z,42.28
2023-05-19T11:08:59.082Z,42.80
2023-05-19T11:11:26.898Z,44.54
2023-05-19T11:13:56.272Z,43.64
2023-05-19T11:16:33.598Z,41.64
2023-05-19T11:19:03.172Z,42.53
2023-05-19T11:21:43.990Z,43.99
2023-05-19T11:24:11.918Z,44.00
2023-05-19T11:26:44.440Z,45.33
2023-05-19T11:29:12.683Z,42.22
2023-05-19T11:31:41.719Z,44.51
2023-05-19T11:34:11.356Z,44.56
2023-05-19T11:36:40.750Z,43.29
2023-05-19T11:39:10.513Z,44.91
2023-05-19T11:41:40.822Z,43.80
2023-05-19T11:44:12.044Z,40.57
2023-05-19T11:46:39.930Z,42.44
2023-05-19T11:49:08.910Z,41.49
2023-05-19T11:51:38.317Z,42.76
2023-05-19T11:54:06.491Z,42.92
2023-05-19T11:56:35.524Z,41.96
2023-05-19T11:59:03.571Z,44.25
2023-05-19T12:01:31.915Z,39.30
2023-05-19T12:04:00.718Z,40.14
2023-05-19T12:06:28.917Z,39.31
2023-05-19T12:08:59.436Z,41.69
2023-05-19T12:11:29.017Z,41.08
2023-05-19T12:14:00.114Z,39.97
2023-05-19T12:16:34.493Z,43.51
2023-05-19T12:19:02.785Z,42.19
2023-05-19T12:21:34.351Z,39.01
2023-05-19T12:26:50.781Z,38.45
2023-05-19T12:29:18.750Z,40.37
2023-05-19T12:31:48.169Z,39.80
2023-05-19T12:34:17.127Z,40.16
2023-05-19T12:36:44.935Z,40.69
2023-05-19T12:39:14.564Z,42.31
2023-05-19T12:41:45.976Z,41.42
2023-05-19T12:44:18.501Z,43.29
2023-05-19T12:46:46.627Z,45.05
2023-05-19T12:49:15.171Z,40.80
2023-05-19T12:51:42.805Z,41.54
2023-05-19T12:54:10.641Z,40.54
2023-05-19T12:56:40.328Z,38.30
2023-05-19T12:59:08.043Z,41.86
2023-05-19T13:01:37.759Z,39.30
2023-05-19T13:04:06.837Z,41.52
2023-05-19T13:06:34.662Z,40.08
2023-05-19T13:09:02.326Z,40.12
2023-05-19T13:11:30.419Z,39.95
2023-05-19T13:13:59.541Z,40.57
2023-05-19T13:16:28.929Z,40.82
2023-05-19T13:18:57.082Z,40.63
2023-05-19T13:21:24.906Z,41.56
2023-05-19T13:23:53.325Z,42.17
2023-05-19T13:26:22.393Z,39.96
2023-05-19T13:28:50.166Z,39.51
2023-05-19T13:31:19.982Z,41.20
2023-05-19T13:33:48.161Z,41.81
2023-05-19T13:36:15.870Z,40.93
2023-05-19T13:38:44.149Z,41.95
2023-05-19T13:41:13.702Z,42.95
2023-05-19T13:43:41.554Z,42.04
2023-05-19T13:46:09.648Z,42.16
2023-05-19T13:48:38.705Z,42.70
2023-05-19T13:51:06.424Z,41.62
2023-05-19T13:53:35.180Z,44.14
2023-05-19T13:56:03.767Z,42.07
2023-05-19T13:58:31.546Z,41.89
2023-05-19T14:01:00.546Z,43.81
2023-05-19T14:03:28.388Z,42.45
2023-05-19T14:05:57.528Z,41.94
2023-05-19T14:08:26.400Z,42.76
2023-05-19T14:10:56.098Z,43.89
2023-05-19T14:15:54.880Z,44.85
2023-05-19T14:18:22.896Z,45.60
2023-05-19T14:20:50.610Z,44.29
2023-05-19T14:23:21.870Z,43.58
2023-05-19T14:25:49.587Z,44.58
2023-05-19T14:28:17.703Z,45.04
2023-05-19T14:30:45.987Z,43.79
2023-05-19T14:33:13.799Z,45.66
2023-05-19T14:35:41.792Z,43.61
2023-05-19T14:38:09.729Z,43.67
2023-05-19T14:40:41.530Z,44.10
2023-05-19T14:43:09.278Z,44.46
2023-05-19T14:45:37.339Z,43.83
2023-05-19T14:48:05.678Z,43.46
2023-05-19T14:50:33.559Z,43.28
2023-05-19T14:53:01.626Z,43.97
2023-05-19T14:55:29.389Z,43.83
2023-05-19T14:57:58.861Z,44.90
2023-05-19T15:00:26.929Z,45.10
2023-05-19T15:02:54.925Z,43.98
2023-05-19T15:05:24.060Z,45.29
2023-05-19T15:07:52.485Z,44.14
2023-05-19T15:10:20.985Z,43.54
2023-05-19T15:12:48.999Z,42.82
2023-05-19T15:15:18.595Z,42.94
2023-05-19T15:17:47.901Z,45.56
2023-05-19T15:20:15.685Z,43.50
2023-05-19T15:22:43.386Z,44.65
2023-05-19T15:25:12.736Z,42.96
2023-05-19T15:27:40.634Z,43.33
2023-05-19T15:30:09.657Z,42.45
2023-05-19T15:32:39.122Z,43.13
2023-05-19T15:35:07.846Z,43.13
2023-05-19T15:37:35.531Z,42.19
2023-05-19T15:40:03.964Z,43.63
2023-05-19T15:42:31.685Z,44.07
2023-05-19T15:44:59.413Z,45.72
2023-05-19T15:47:27.137Z,44.47
2023-05-19T15:49:56.191Z,45.07
2023-05-19T15:52:23.865Z,44.81
2023-05-19T15:54:51.883Z,44.88
2023-05-19T15:57:19.565Z,44.96
2023-05-19T15:59:47.259Z,42.97
2023-05-19T16:02:16.354Z,41.95
2023-05-19T16:04:44.153Z,44.25
2023-05-19T16:07:13.550Z,42.91
2023-05-19T16:09:41.181Z,42.95
2023-05-19T16:12:09.071Z,43.88
2023-05-19T16:14:38.104Z,45.48
2023-05-19T16:17:11.238Z,46.13
2023-05-19T16:19:39.360Z,44.56
2023-05-19T16:22:07.274Z,45.22
2023-05-19T16:24:36.678Z,45.22
2023-05-19T16:27:04.917Z,44.29
2023-05-19T16:29:33.090Z,44.55
2023-05-19T16:32:00.917Z,45.68
2023-05-19T16:34:30.571Z,43.27
2023-05-19T16:36:58.492Z,43.79
2023-05-19T16:39:26.696Z,44.33
2023-05-19T16:41:55.751Z,43.82
2023-05-19T16:44:24.548Z,44.15
2023-05-19T16:46:52.312Z,45.68
2023-05-19T16:49:20.307Z,46.19
2023-05-19T16:51:48.986Z,45.81
2023-05-19T16:54:16.882Z,46.41
2023-05-19T16:56:44.767Z,44.29
2023-05-19T16:59:13.861Z,43.76
2023-05-19T17:01:42.071Z,44.38
2023-05-19T17:04:10.596Z,45.30
2023-05-19T17:06:39.374Z,44.65
2023-05-19T17:09:07.129Z,44.82
2023-05-19T17:11:35.366Z,44.84
2023-05-19T17:14:07.532Z,46.10
2023-05-19T17:16:37.240Z,47.31
2023-05-19T17:19:05.569Z,46.66
2023-05-19T17:21:34.046Z,46.21
2023-05-19T17:24:01.942Z,46.16
2023-05-19T17:26:30.930Z,45.54
2023-05-19T17:28:58.656Z,46.25
2023-05-19T17:31:26.757Z,44.87
2023-05-19T17:33:55.823Z,45.65
2023-05-19T17:36:23.926Z,46.20
2023-05-19T17:38:51.632Z,46.07
2023-05-19T17:41:19.773Z,45.90
2023-05-19T17:43:47.570Z,46.96
2023-05-19T17:46:16.501Z,46.19
2023-05-19T17:48:44.617Z,46.76
2023-05-19T17:51:14.079Z,46.90
2023-05-19T17:53:42.870Z,45.28
2023-05-19T17:56:12.978Z,45.41
2023-05-19T17:58:41.532Z,45.26
2023-05-19T18:01:10.346Z,46.09
2023-05-19T18:03:38.776Z,46.81
2023-05-19T18:06:09.436Z,45.45
2023-05-19T18:08:39.634Z,46.16
2023-05-19T18:11:08.034Z,46.84
2023-05-19T18:13:37.485Z,48.02
2023-05-19T18:16:05.429Z,48.16
2023-05-19T18:18:35.023Z,47.92
2023-05-19T18:21:02.796Z,48.71
2023-05-19T18:23:31.178Z,48.31
2023-05-19T18:26:00.409Z,48.13
2023-05-19T18:28:30.012Z,47.87
2023-05-19T18:31:01.137Z,48.70
2023-05-19T18:33:31.050Z,48.25
2023-05-19T18:35:59.895Z,48.54
2023-05-19T18:38:27.946Z,49.26
2023-05-19T18:40:57.899Z,49.27
2023-05-19T18:43:29.999Z,49.42
2023-05-19T18:45:58.233Z,49.91
2023-05-19T18:48:26.875Z,50.75
2023-05-19T18:50:54.922Z,50.31
2023-05-19T18:53:23.039Z,51.23
2023-05-19T18:55:51.232Z,51.31
2023-05-19T18:58:19.543Z,52.13
2023-05-19T19:00:48.695Z,52.22
2023-05-19T19:03:16.711Z,52.16
2023-05-19T19:05:44.973Z,52.66
2023-05-19T19:08:13.148Z,52.81
2023-05-19T19:10:40.878Z,52.48
2023-05-19T19:13:08.626Z,52.43
2023-05-19T19:15:36.417Z,53.10
2023-05-19T19:18:08.048Z,53.36
2023-05-19T19:20:36.054Z,54.11
2023-05-19T19:23:06.735Z,54.21
2023-05-19T19:25:34.649Z,54.48
2023-05-19T19:28:02.424Z,54.81
2023-05-19T19:30:30.910Z,55.19
2023-05-19T19:32:59.684Z,55.68
2023-05-19T19:35:29.141Z,56.13
2023-05-19T19:37:58.683Z,56.07
2023-05-19T19:40:26.437Z,56.66
2023-05-19T19:42:54.278Z,57.16
2023-05-19T19:45:22.037Z,57.26
2023-05-19T19:47:50.155Z,57.43
2023-05-19T19:50:17.946Z,57.12
2023-05-19T19:52:47.273Z,57.29
2023-05-19T19:55:14.972Z,57.41
2023-05-19T19:57:45.214Z,58.09
2023-05-19T20:00:14.110Z,58.25
2023-05-19T20:03:02.176Z,58.46
2023-05-19T20:05:29.872Z,58.75
2023-05-19T20:07:59.329Z,58.71
2023-05-19T20:10:27.539Z,59.06
2023-05-19T20:12:55.271Z,59.50
2023-05-19T20:15:23.599Z,59.94
2023-05-19T20:17:51.398Z,59.92
2023-05-19T20:20:19.510Z,60.33
2023-05-19T20:22:47.228Z,60.29
2023-05-19T20:25:16.473Z,60.42
2023-05-19T20:27:44.206Z,60.69
2023-05-19T20:30:12.572Z,60.62
2023-05-19T20:32:40.703Z,61.17
2023-05-19T20:35:09.085Z,61.65
2023-05-19T20:37:37.187Z,61.86
2023-05-19T20:40:05.834Z,61.80
2023-05-19T20:42:35.469Z,61.98
2023-05-19T20:45:03.642Z,62.09
2023-05-19T20:47:32.538Z,62.04
2023-05-19T20:50:00.383Z,62.26
2023-05-19T20:52:28.400Z,62.26
2023-05-19T20:54:56.078Z,62.34
2023-05-19T20:57:23.915Z,62.76
2023-05-19T20:59:53.002Z,62.84
2023-05-19T21:02:21.158Z,62.73
2023-05-19T21:04:49.680Z,62.72
2023-05-19T21:07:18.009Z,63.20
2023-05-19T21:09:46.548Z,63.60
2023-05-19T21:12:16.397Z,64.10
2023-05-19T21:14:44.361Z,64.47
2023-05-19T21:17:13.498Z,64.66
2023-05-19T21:19:41.919Z,64.61
2023-05-19T21:22:09.622Z,64.95
2023-05-19T21:24:37.642Z,64.94
2023-05-19T21:27:05.873Z,65.44
2023-05-19T21:29:33.839Z,65.53
2023-05-19T21:32:01.527Z,65.52
2023-05-19T21:34:30.958Z,65.37
2023-05-19T21:36:58.675Z,65.67
2023-05-19T21:39:26.791Z,66.19
2023-05-19T21:41:54.474Z,66.39
2023-05-19T21:44:24.048Z,66.60
2023-05-19T21:46:51.860Z,66.97
2023-05-19T21:49:20.365Z,66.92
2023-05-19T21:51:49.447Z,67.13
2023-05-19T21:54:17.390Z,67.15
2023-05-19T21:56:45.403Z,67.29
2023-05-19T21:59:13.360Z,67.38
2023-05-19T22:01:42.240Z,67.54
2023-05-19T22:04:10.676Z,67.39
2023-05-19T22:06:38.425Z,67.56
2023-05-19T22:09:08.487Z,68.05
2023-05-19T22:11:36.270Z,68.30
2023-05-19T22:14:04.369Z,68.29
2023-05-19T22:16:33.323Z,68.44
2023-05-19T22:19:01.176Z,68.60
2023-05-19T22:21:29.207Z,68.29
2023-05-19T22:23:56.930Z,68.46
2023-05-19T22:26:26.037Z,68.46
2023-05-19T22:28:53.865Z,68.54
2023-05-19T22:31:21.851Z,68.19
2023-05-19T22:33:50.010Z,68.53
2023-05-19T22:36:17.807Z,68.37
2023-05-19T22:38:45.801Z,68.42
2023-05-19T22:41:13.493Z,68.17
2023-05-19T22:43:43.168Z,68.36
2023-05-19T22:46:10.876Z,68.52
2023-05-19T22:48:38.632Z,68.51
2023-05-19T22:51:06.820Z,68.46
2023-05-19T22:53:34.917Z,68.18
2023-05-19T22:56:02.574Z,68.66
2023-05-19T22:58:30.652Z,68.92
2023-05-19T23:00:59.739Z,69.03
2023-05-19T23:03:27.458Z,68.91
2023-05-19T23:05:55.682Z,69.30
2023-05-19T23:08:23.357Z,69.70
2023-05-19T23:10:51.406Z,70.31
2023-05-19T23:13:21.403Z,70.33
2023-05-19T23:15:49.940Z,70.18
2023-05-19T23:18:19.398Z,70.04
2023-05-19T23:20:47.042Z,70.03
2023-05-19T23:23:14.742Z,70.47
2023-05-19T23:25:42.767Z,70.36
2023-05-19T23:28:10.914Z,70.38
2023-05-19T23:30:39.735Z,70.29
2023-05-19T23:33:07.484Z,70.49
2023-05-19T23:35:37.057Z,70.64
2023-05-19T23:38:04.780Z,71.43
2023-05-19T23:40:32.853Z,71.59
2023-05-19T23:43:00.567Z,71.89
2023-05-19T23:45:28.751Z,71.95
2023-05-19T23:47:56.541Z,72.02
2023-05-19T23:50:25.255Z,71.88
2023-05-19T23:52:54.349Z,71.75
2023-05-19T23:55:23.750Z,71.70
2023-05-19T23:57:51.461Z,72.02
